createdAt,value
2023-07-05T00:00:06.659Z,23.30
2023-07-05T00:01:06.436Z,23.19
2023-07-05T00:01:46.464Z,23.22
2023-07-05T00:02:26.470Z,23.20
2023-07-05T00:03:06.754Z,23.24
2023-07-05T00:03:47.413Z,23.19
2023-07-05T00:04:27.488Z,23.21
2023-07-05T00:05:07.427Z,23.22
2023-07-05T00:05:47.475Z,23.25
2023-07-05T00:06:27.397Z,23.22
2023-07-05T00:07:07.693Z,23.08
2023-07-05T00:07:50.283Z,23.05
2023-07-05T00:08:30.536Z,23.01
2023-07-05T00:09:11.391Z,22.99
2023-07-05T00:09:51.491Z,22.91
2023-07-05T00:10:32.598Z,22.90
2023-07-05T00:11:15.493Z,22.87
2023-07-05T00:11:56.432Z,22.94
2023-07-05T00:12:36.497Z,22.83
2023-07-05T00:13:16.514Z,22.86
2023-07-05T00:13:56.531Z,22.83
2023-07-05T00:14:39.543Z,22.84
2023-07-05T00:15:22.486Z,22.89
2023-07-05T00:16:03.476Z,22.90
2023-07-05T00:16:43.617Z,22.90
2023-07-05T00:17:23.491Z,22.89
2023-07-05T00:18:05.090Z,22.94
2023-07-05T00:18:46.377Z,22.88
2023-07-05T00:19:26.461Z,22.88
2023-07-05T00:20:07.389Z,22.76
2023-07-05T00:20:47.569Z,22.95
2023-07-05T00:21:27.361Z,22.99
2023-07-05T00:22:07.459Z,22.92
2023-07-05T00:22:48.392Z,22.95
2023-07-05T00:23:28.610Z,22.92
2023-07-05T00:24:09.375Z,22.94
2023-07-05T00:24:49.501Z,22.96
2023-07-05T00:25:29.402Z,22.91
2023-07-05T00:26:11.435Z,22.95
2023-07-05T00:26:51.381Z,22.96
2023-07-05T00:27:32.536Z,22.91
2023-07-05T00:28:12.360Z,22.96
2023-07-05T00:28:53.431Z,22.95
2023-07-05T00:29:34.378Z,22.97
2023-07-05T00:30:17.568Z,22.98
2023-07-05T00:30:59.406Z,22.93
2023-07-05T00:31:39.805Z,22.78
2023-07-05T00:32:21.451Z,22.83
2023-07-05T00:33:01.521Z,22.87
2023-07-05T00:33:42.351Z,22.84
2023-07-05T00:34:22.460Z,22.88
2023-07-05T00:35:02.397Z,22.89
2023-07-05T00:35:42.479Z,22.86
2023-07-05T00:36:23.358Z,22.85
2023-07-05T00:37:03.484Z,22.80
2023-07-05T00:37:43.380Z,22.79
2023-07-05T00:38:24.447Z,22.75
2023-07-05T00:39:04.412Z,22.68
2023-07-05T00:39:44.433Z,22.60
2023-07-05T00:40:26.371Z,22.64
2023-07-05T00:41:06.617Z,22.62
2023-07-05T00:41:46.354Z,22.62
2023-07-05T00:42:26.551Z,22.61
2023-07-05T00:43:07.397Z,22.66
2023-07-05T00:43:55.618Z,22.53
2023-07-05T00:44:36.506Z,22.52
2023-07-05T00:45:19.474Z,22.58
2023-07-05T00:46:06.386Z,22.52
2023-07-05T00:46:51.422Z,22.59
2023-07-05T00:47:36.388Z,22.45
2023-07-05T00:48:21.521Z,22.56
2023-07-05T00:49:23.386Z,22.61
2023-07-05T00:50:10.368Z,22.62
2023-07-05T00:50:49.497Z,22.59
2023-07-05T00:51:48.391Z,22.59
2023-07-05T00:52:24.499Z,22.50
2023-07-05T00:53:12.356Z,22.55
2023-07-05T00:53:49.136Z,22.56
2023-07-05T00:54:48.354Z,22.55
2023-07-05T00:55:30.399Z,22.49
2023-07-05T00:56:46.379Z,22.41
2023-07-05T00:57:44.409Z,22.58
2023-07-05T00:58:38.374Z,22.55
2023-07-05T00:59:34.378Z,22.47
2023-07-05T01:00:33.371Z,22.38
2023-07-05T01:01:27.424Z,22.45
2023-07-05T01:02:21.377Z,22.46
2023-07-05T01:03:19.380Z,22.49
2023-07-05T01:04:14.349Z,22.44
2023-07-05T01:05:09.441Z,22.43
2023-07-05T01:06:00.349Z,22.26
2023-07-05T01:06:34.500Z,22.23
2023-07-05T01:07:21.416Z,22.15
2023-07-05T01:07:55.472Z,22.10
2023-07-05T01:08:43.347Z,21.99
2023-07-05T01:09:17.448Z,22.01
2023-07-05T01:10:04.422Z,21.95
2023-07-05T01:10:38.479Z,22.01
2023-07-05T01:11:33.387Z,21.96
2023-07-05T01:12:46.656Z,21.93
2023-07-05T01:13:53.390Z,21.99
2023-07-05T01:15:07.675Z,21.94
2023-07-05T01:16:12.390Z,21.99
2023-07-05T01:17:15.425Z,22.04
2023-07-05T01:18:34.415Z,22.01
2023-07-05T01:20:12.516Z,21.96
2023-07-05T01:21:20.343Z,21.93
2023-07-05T01:22:23.415Z,21.88
2023-07-05T01:24:09.360Z,21.94
2023-07-05T01:25:09.393Z,21.92
2023-07-05T01:26:41.361Z,21.90
2023-07-05T01:27:57.380Z,21.98
2023-07-05T01:29:00.299Z,22.01
2023-07-05T01:30:09.377Z,22.04
2023-07-05T01:31:18.366Z,22.00
2023-07-05T01:32:43.434Z,21.91
2023-07-05T01:33:55.364Z,21.81
2023-07-05T01:35:07.453Z,21.80
2023-07-05T01:35:56.618Z,21.75
2023-07-05T01:36:38.581Z,21.77
2023-07-05T01:37:52.333Z,21.83
2023-07-05T01:38:46.329Z,21.86
2023-07-05T01:39:26.316Z,21.84
2023-07-05T01:40:08.456Z,21.89
2023-07-05T01:41:08.356Z,21.89
2023-07-05T01:41:48.446Z,21.84
2023-07-05T01:42:38.303Z,21.75
2023-07-05T01:43:20.475Z,21.74
2023-07-05T01:44:01.326Z,21.74
2023-07-05T01:44:41.368Z,21.70
2023-07-05T01:45:16.376Z,21.70
2023-07-05T01:46:35.324Z,21.65
2023-07-05T01:47:20.447Z,21.56
2023-07-05T01:48:21.293Z,21.52
2023-07-05T01:49:48.340Z,21.52
2023-07-05T01:50:49.368Z,21.42
2023-07-05T01:51:57.356Z,21.45
2023-07-05T01:53:32.307Z,21.21
2023-07-05T01:54:57.350Z,21.27
2023-07-05T01:56:11.397Z,21.22
2023-07-05T01:57:30.308Z,21.27
2023-07-05T01:58:33.331Z,21.20
2023-07-05T01:59:27.493Z,21.16
2023-07-05T02:00:19.389Z,21.10
2023-07-05T02:00:55.417Z,21.09
2023-07-05T02:01:43.291Z,21.20
2023-07-05T02:02:18.535Z,21.04
2023-07-05T02:03:10.514Z,21.21
2023-07-05T02:03:48.130Z,21.11
2023-07-05T02:04:36.295Z,21.21
2023-07-05T02:05:11.393Z,21.21
2023-07-05T02:05:53.462Z,21.20
2023-07-05T02:06:34.421Z,21.16
2023-07-05T02:07:15.342Z,21.32
2023-07-05T02:07:55.390Z,21.14
2023-07-05T02:08:37.306Z,21.21
2023-07-05T02:09:17.376Z,21.16
2023-07-05T02:09:57.307Z,21.22
2023-07-05T02:10:39.473Z,21.28
2023-07-05T02:11:19.283Z,21.20
2023-07-05T02:11:59.359Z,21.28
2023-07-05T02:12:39.330Z,21.30
2023-07-05T02:13:20.107Z,21.24
2023-07-05T02:14:00.401Z,21.23
2023-07-05T02:14:41.413Z,21.23
2023-07-05T02:15:22.368Z,21.07
2023-07-05T02:16:02.492Z,21.06
2023-07-05T02:16:42.336Z,21.06
2023-07-05T02:17:23.483Z,21.09
2023-07-05T02:18:03.404Z,21.04
2023-07-05T02:18:44.454Z,21.07
2023-07-05T02:19:25.365Z,21.00
2023-07-05T02:20:05.577Z,20.98
2023-07-05T02:20:46.293Z,20.98
2023-07-05T02:21:26.431Z,21.00
2023-07-05T02:22:07.370Z,21.01
2023-07-05T02:22:48.428Z,20.98
2023-07-05T02:23:30.280Z,21.01
2023-07-05T02:24:11.387Z,21.01
2023-07-05T02:24:51.357Z,21.04
2023-07-05T02:25:31.370Z,21.04
2023-07-05T02:26:13.339Z,21.02
2023-07-05T02:26:54.385Z,21.05
2023-07-05T02:27:36.418Z,21.06
2023-07-05T02:28:17.391Z,21.07
2023-07-05T02:28:57.279Z,21.11
2023-07-05T02:29:37.425Z,21.13
2023-07-05T02:30:20.275Z,21.10
2023-07-05T02:31:01.392Z,21.07
2023-07-05T02:31:42.268Z,21.10
2023-07-05T02:32:22.692Z,21.07
2023-07-05T02:33:02.325Z,20.98
2023-07-05T02:33:44.797Z,20.95
2023-07-05T02:34:27.277Z,20.91
2023-07-05T02:35:09.707Z,20.92
2023-07-05T02:35:50.298Z,20.98
2023-07-05T02:36:30.408Z,21.04
2023-07-05T02:37:11.293Z,21.06
2023-07-05T02:37:51.433Z,20.94
2023-07-05T02:38:31.293Z,21.03
2023-07-05T02:39:12.412Z,21.02
2023-07-05T02:39:53.263Z,21.05
2023-07-05T02:40:33.969Z,21.06
2023-07-05T02:41:16.311Z,21.14
2023-07-05T02:41:56.394Z,21.11
2023-07-05T02:42:36.285Z,21.11
2023-07-05T02:43:17.361Z,21.14
2023-07-05T02:43:59.271Z,21.05
2023-07-05T02:44:41.679Z,21.07
2023-07-05T02:45:22.288Z,21.11
2023-07-05T02:46:02.519Z,21.12
2023-07-05T02:46:43.321Z,21.16
2023-07-05T02:47:25.477Z,21.09
2023-07-05T02:48:05.300Z,21.12
2023-07-05T02:48:46.327Z,21.16
2023-07-05T02:49:27.275Z,21.09
2023-07-05T02:50:08.197Z,21.03
2023-07-05T02:50:48.236Z,21.10
2023-07-05T02:51:28.475Z,21.02
2023-07-05T02:52:08.313Z,21.01
2023-07-05T02:52:49.411Z,21.02
2023-07-05T02:53:29.275Z,21.07
2023-07-05T02:54:09.386Z,21.09
2023-07-05T02:54:50.313Z,21.09
2023-07-05T02:55:31.359Z,21.06
2023-07-05T02:56:12.270Z,21.08
2023-07-05T02:56:52.486Z,21.01
2023-07-05T02:57:32.253Z,20.99
2023-07-05T02:58:12.428Z,21.00
2023-07-05T02:58:53.326Z,20.97
2023-07-05T02:59:34.515Z,20.87
2023-07-05T03:00:15.307Z,20.93
2023-07-05T03:00:55.464Z,20.98
2023-07-05T03:01:35.370Z,21.04
2023-07-05T03:02:15.586Z,20.92
2023-07-05T03:02:55.314Z,20.99
2023-07-05T03:03:36.338Z,20.91
2023-07-05T03:04:16.262Z,20.91
2023-07-05T03:04:56.344Z,20.93
2023-07-05T03:05:36.293Z,20.98
2023-07-05T03:06:16.435Z,20.94
2023-07-05T03:06:56.296Z,20.86
2023-07-05T03:07:37.458Z,20.91
2023-07-05T03:08:18.229Z,20.90
2023-07-05T03:08:58.315Z,20.90
2023-07-05T03:09:38.207Z,20.89
2023-07-05T03:10:18.306Z,20.87
2023-07-05T03:11:01.229Z,20.84
2023-07-05T03:11:42.344Z,20.78
2023-07-05T03:12:23.334Z,20.83
2023-07-05T03:13:03.379Z,20.83
2023-07-05T03:13:44.262Z,20.78
2023-07-05T03:14:24.352Z,20.75
2023-07-05T03:15:06.247Z,20.67
2023-07-05T03:15:46.326Z,20.64
2023-07-05T03:16:26.269Z,20.79
2023-07-05T03:17:06.351Z,20.78
2023-07-05T03:17:47.323Z,20.86
2023-07-05T03:18:27.359Z,20.76
2023-07-05T03:19:07.222Z,20.82
2023-07-05T03:19:47.325Z,20.82
2023-07-05T03:20:27.263Z,20.81
2023-07-05T03:21:07.418Z,20.77
2023-07-05T03:21:48.262Z,20.83
2023-07-05T03:22:28.434Z,20.84
2023-07-05T03:23:08.410Z,20.78
2023-07-05T03:23:49.427Z,20.80
2023-07-05T03:24:29.277Z,20.83
2023-07-05T03:25:09.413Z,20.82
2023-07-05T03:26:04.233Z,20.87
2023-07-05T03:26:44.379Z,20.85
2023-07-05T03:27:25.262Z,20.71
2023-07-05T03:28:19.238Z,20.76
2023-07-05T03:29:13.269Z,20.71
2023-07-05T03:30:07.233Z,20.73
2023-07-05T03:31:13.278Z,20.56
2023-07-05T03:32:07.253Z,20.50
2023-07-05T03:32:51.288Z,20.54
2023-07-05T03:33:32.334Z,20.41
2023-07-05T03:34:12.226Z,20.59
2023-07-05T03:34:52.670Z,20.41
2023-07-05T03:35:32.266Z,20.66
2023-07-05T03:36:18.434Z,20.63
2023-07-05T03:36:58.339Z,20.66
2023-07-05T03:37:38.381Z,20.72
2023-07-05T03:38:18.278Z,20.76
2023-07-05T03:38:59.329Z,20.63
2023-07-05T03:39:39.234Z,20.65
2023-07-05T03:40:20.363Z,20.69
2023-07-05T03:41:13.236Z,20.75
2023-07-05T03:41:53.472Z,20.74
2023-07-05T03:42:33.236Z,20.77
2023-07-05T03:43:13.333Z,20.78
2023-07-05T03:43:56.244Z,20.85
2023-07-05T03:44:37.398Z,20.88
2023-07-05T03:45:18.277Z,20.86
2023-07-05T03:46:00.918Z,20.72
2023-07-05T03:46:42.295Z,20.80
2023-07-05T03:47:22.343Z,20.82
2023-07-05T03:48:03.262Z,20.68
2023-07-05T03:48:48.260Z,20.64
2023-07-05T03:49:28.348Z,20.74
2023-07-05T03:50:08.423Z,20.74
2023-07-05T03:50:48.319Z,20.79
2023-07-05T03:51:30.339Z,20.72
2023-07-05T03:52:11.257Z,20.75
2023-07-05T03:52:51.267Z,20.86
2023-07-05T03:53:32.218Z,20.84
2023-07-05T03:54:12.305Z,20.89
2023-07-05T03:54:52.250Z,20.94
2023-07-05T03:55:32.408Z,20.92
2023-07-05T03:56:17.216Z,20.92
2023-07-05T03:56:57.348Z,20.97
2023-07-05T03:57:38.231Z,21.01
2023-07-05T03:58:18.314Z,21.01
2023-07-05T03:58:59.289Z,21.05
2023-07-05T03:59:40.618Z,21.03
2023-07-05T04:00:24.223Z,21.06
2023-07-05T04:01:19.216Z,21.12
2023-07-05T04:01:59.251Z,21.09
2023-07-05T04:02:39.357Z,21.14
2023-07-05T04:03:22.223Z,21.05
2023-07-05T04:04:08.402Z,21.18
2023-07-05T04:04:50.258Z,21.23
2023-07-05T04:05:40.281Z,21.25
2023-07-05T04:06:35.240Z,21.18
2023-07-05T04:07:29.223Z,21.19
2023-07-05T04:08:23.191Z,21.20
2023-07-05T04:09:17.218Z,21.14
2023-07-05T04:10:11.208Z,21.14
2023-07-05T04:10:58.279Z,21.22
2023-07-05T04:11:32.537Z,21.22
2023-07-05T04:12:19.218Z,21.25
2023-07-05T04:12:53.340Z,21.23
2023-07-05T04:13:40.234Z,21.30
2023-07-05T04:14:14.293Z,21.35
2023-07-05T04:15:01.273Z,21.29
2023-07-05T04:15:35.258Z,21.30
2023-07-05T04:16:26.367Z,21.35
2023-07-05T04:17:00.320Z,21.30
2023-07-05T04:17:47.276Z,21.23
2023-07-05T04:18:21.515Z,21.37
2023-07-05T04:19:08.195Z,21.33
2023-07-05T04:19:42.273Z,21.33
2023-07-05T04:20:29.171Z,21.34
2023-07-05T04:21:04.251Z,21.43
2023-07-05T04:21:51.234Z,21.42
2023-07-05T04:22:25.264Z,21.44
2023-07-05T04:23:12.213Z,21.46
2023-07-05T04:23:48.295Z,21.51
2023-07-05T04:24:36.241Z,21.52
2023-07-05T04:25:10.300Z,21.51
2023-07-05T04:25:57.193Z,21.58
2023-07-05T04:26:33.267Z,21.58
2023-07-05T04:27:13.215Z,21.57
2023-07-05T04:28:07.311Z,21.60
2023-07-05T04:29:01.261Z,21.62
2023-07-05T04:29:55.219Z,21.48
2023-07-05T04:30:52.021Z,21.56
2023-07-05T04:31:46.211Z,21.55
2023-07-05T04:32:34.243Z,21.55
2023-07-05T04:33:08.275Z,21.48
2023-07-05T04:33:55.161Z,21.52
2023-07-05T04:34:29.240Z,21.59
2023-07-05T04:35:16.173Z,21.58
2023-07-05T04:35:55.260Z,21.61
2023-07-05T04:36:42.268Z,21.62
2023-07-05T04:37:25.737Z,21.61
2023-07-05T04:38:11.222Z,21.53
2023-07-05T04:38:51.261Z,21.53
2023-07-05T04:39:31.130Z,21.57
2023-07-05T04:40:12.246Z,21.53
2023-07-05T04:40:52.373Z,21.52
2023-07-05T04:41:34.256Z,21.61
2023-07-05T04:42:15.147Z,21.55
2023-07-05T04:42:55.257Z,21.61
2023-07-05T04:43:36.173Z,21.58
2023-07-05T04:44:16.226Z,21.74
2023-07-05T04:44:56.139Z,21.79
2023-07-05T04:45:36.281Z,21.76
2023-07-05T04:46:19.566Z,21.82
2023-07-05T04:47:00.240Z,21.89
2023-07-05T04:47:40.157Z,21.91
2023-07-05T04:48:20.241Z,21.83
2023-07-05T04:49:03.211Z,21.86
2023-07-05T04:49:43.223Z,21.94
2023-07-05T04:50:24.144Z,21.90
2023-07-05T04:51:06.944Z,21.94
2023-07-05T04:51:47.140Z,21.90
2023-07-05T04:52:27.252Z,21.99
2023-07-05T04:53:07.123Z,21.94
2023-07-05T04:53:47.497Z,22.07
2023-07-05T04:54:28.139Z,22.09
2023-07-05T04:55:08.268Z,22.09
2023-07-05T04:55:53.173Z,22.04
2023-07-05T04:56:33.257Z,22.05
2023-07-05T04:57:27.614Z,22.15
2023-07-05T04:58:12.299Z,22.06
2023-07-05T04:58:55.133Z,22.11
2023-07-05T04:59:43.139Z,22.16
2023-07-05T05:00:37.109Z,22.17
2023-07-05T05:01:33.285Z,22.17
2023-07-05T05:02:27.250Z,22.22
2023-07-05T05:03:21.244Z,22.29
2023-07-05T05:04:15.177Z,22.32
2023-07-05T05:05:02.334Z,22.39
2023-07-05T05:05:36.226Z,22.30
2023-07-05T05:06:23.128Z,22.28
2023-07-05T05:06:58.191Z,22.27
2023-07-05T05:07:45.115Z,22.29
2023-07-05T05:08:20.336Z,22.31
2023-07-05T05:09:07.126Z,22.28
2023-07-05T05:09:41.893Z,22.30
2023-07-05T05:10:22.175Z,22.37
2023-07-05T05:11:06.242Z,22.37
2023-07-05T05:11:46.114Z,22.35
2023-07-05T05:12:26.193Z,22.40
2023-07-05T05:13:06.115Z,22.39
2023-07-05T05:13:46.291Z,22.45
2023-07-05T05:14:27.130Z,22.34
2023-07-05T05:15:07.352Z,22.51
2023-07-05T05:15:48.160Z,22.52
2023-07-05T05:16:28.337Z,22.53
2023-07-05T05:17:08.226Z,22.51
2023-07-05T05:17:48.286Z,22.50
2023-07-05T05:18:32.204Z,22.59
2023-07-05T05:19:14.998Z,22.62
2023-07-05T05:19:55.133Z,22.55
2023-07-05T05:20:37.791Z,22.64
2023-07-05T05:21:19.157Z,22.58
2023-07-05T05:21:59.259Z,22.50
2023-07-05T05:22:40.179Z,22.55
2023-07-05T05:23:20.265Z,22.58
2023-07-05T05:24:00.132Z,22.59
2023-07-05T05:24:42.853Z,22.65
2023-07-05T05:25:24.229Z,22.70
2023-07-05T05:26:05.307Z,22.70
2023-07-05T05:26:46.147Z,22.66
2023-07-05T05:27:26.230Z,22.66
2023-07-05T05:28:07.140Z,22.74
2023-07-05T05:28:47.292Z,22.78
2023-07-05T05:29:27.156Z,22.83
2023-07-05T05:30:07.247Z,22.91
2023-07-05T05:30:51.243Z,22.91
2023-07-05T05:31:31.677Z,22.92
2023-07-05T05:32:13.152Z,23.00
2023-07-05T05:32:54.278Z,23.07
2023-07-05T05:33:34.182Z,23.07
2023-07-05T05:34:18.369Z,23.11
2023-07-05T05:34:58.127Z,23.11
2023-07-05T05:35:39.282Z,23.17
2023-07-05T05:36:20.120Z,23.17
2023-07-05T05:37:01.216Z,23.24
2023-07-05T05:37:42.192Z,23.25
2023-07-05T05:38:27.298Z,23.09
2023-07-05T05:39:07.125Z,23.22
2023-07-05T05:39:47.167Z,23.21
2023-07-05T05:40:27.133Z,23.22
2023-07-05T05:41:14.189Z,23.28
2023-07-05T05:41:55.160Z,23.28
2023-07-05T05:42:37.271Z,23.33
2023-07-05T05:43:18.259Z,23.38
2023-07-05T05:43:58.248Z,23.39
2023-07-05T05:44:38.103Z,23.42
2023-07-05T05:45:19.209Z,23.40
2023-07-05T05:46:00.145Z,23.43
2023-07-05T05:46:40.384Z,23.43
2023-07-05T05:47:20.130Z,23.54
2023-07-05T05:48:00.261Z,23.58
2023-07-05T05:48:40.164Z,23.57
2023-07-05T05:49:20.211Z,23.59
2023-07-05T05:50:01.189Z,23.64
2023-07-05T05:50:41.214Z,23.67
2023-07-05T05:51:22.189Z,23.65
2023-07-05T05:52:02.601Z,23.65
2023-07-05T05:52:44.103Z,23.59
2023-07-05T05:53:25.401Z,23.72
2023-07-05T05:54:06.864Z,23.76
2023-07-05T05:54:47.212Z,23.71
2023-07-05T05:55:28.144Z,23.53
2023-07-05T05:56:08.283Z,23.72
2023-07-05T05:56:48.089Z,23.77
2023-07-05T05:57:28.227Z,23.83
2023-07-05T05:58:09.105Z,23.89
2023-07-05T05:58:49.252Z,23.92
2023-07-05T05:59:29.152Z,23.89
2023-07-05T06:00:10.996Z,23.74
2023-07-05T06:00:51.088Z,23.93
2023-07-05T06:02:03.299Z,23.98
2023-07-05T06:02:45.163Z,24.01
2023-07-05T06:03:25.321Z,24.07
2023-07-05T06:04:06.274Z,24.18
2023-07-05T06:04:47.101Z,24.18
2023-07-05T06:05:21.205Z,24.23
2023-07-05T06:06:08.091Z,24.23
2023-07-05T06:06:42.416Z,24.24
2023-07-05T06:07:29.110Z,24.29
2023-07-05T06:08:03.262Z,24.29
2023-07-05T06:08:50.371Z,24.29
2023-07-05T06:09:25.642Z,24.22
2023-07-05T06:10:06.117Z,24.26
2023-07-05T06:10:47.984Z,24.35
2023-07-05T06:11:28.085Z,24.38
2023-07-05T06:12:08.186Z,24.39
2023-07-05T06:12:49.103Z,24.40
2023-07-05T06:13:29.268Z,24.26
2023-07-05T06:14:10.112Z,24.31
2023-07-05T06:14:51.284Z,24.31
2023-07-05T06:15:31.136Z,24.27
2023-07-05T06:16:15.121Z,24.34
2023-07-05T06:16:55.142Z,24.41
2023-07-05T06:17:35.272Z,24.48
2023-07-05T06:18:15.123Z,24.59
2023-07-05T06:18:56.231Z,24.67
2023-07-05T06:19:36.108Z,24.71
2023-07-05T06:20:17.466Z,24.57
2023-07-05T06:20:57.161Z,24.60
2023-07-05T06:21:37.208Z,24.70
2023-07-05T06:22:17.139Z,24.77
2023-07-05T06:22:58.282Z,24.82
2023-07-05T06:23:38.118Z,24.84
2023-07-05T06:24:18.228Z,24.78
2023-07-05T06:24:58.125Z,24.80
2023-07-05T06:25:38.215Z,24.82
2023-07-05T06:26:19.135Z,24.84
2023-07-05T06:27:00.384Z,24.93
2023-07-05T06:27:42.103Z,24.89
2023-07-05T06:28:23.193Z,24.93
2023-07-05T06:29:03.123Z,24.95
2023-07-05T06:29:43.214Z,24.91
2023-07-05T06:30:24.137Z,24.92
2023-07-05T06:31:17.217Z,24.95
2023-07-05T06:31:57.096Z,25.01
2023-07-05T06:32:37.230Z,24.96
2023-07-05T06:33:17.090Z,24.92
2023-07-05T06:33:58.146Z,24.95
2023-07-05T06:34:39.071Z,25.02
2023-07-05T06:35:19.187Z,25.09
2023-07-05T06:36:01.060Z,25.15
2023-07-05T06:36:41.470Z,25.28
2023-07-05T06:37:22.069Z,25.34
2023-07-05T06:38:02.218Z,25.36
2023-07-05T06:38:43.051Z,25.31
2023-07-05T06:39:23.153Z,25.35
2023-07-05T06:40:03.064Z,25.26
2023-07-05T06:40:43.154Z,25.39
2023-07-05T06:41:23.060Z,25.41
2023-07-05T06:42:03.354Z,25.49
2023-07-05T06:42:44.119Z,25.53
2023-07-05T06:43:24.143Z,25.37
2023-07-05T06:44:04.150Z,25.48
2023-07-05T06:44:44.108Z,25.44
2023-07-05T06:45:24.028Z,25.52
2023-07-05T06:46:05.189Z,25.58
2023-07-05T06:46:46.139Z,25.54
2023-07-05T06:47:26.185Z,25.63
2023-07-05T06:48:06.274Z,25.61
2023-07-05T06:48:46.678Z,25.67
2023-07-05T06:49:27.052Z,25.80
2023-07-05T06:50:07.138Z,25.68
2023-07-05T06:50:48.037Z,25.75
2023-07-05T06:51:28.159Z,25.75
2023-07-05T06:52:08.035Z,25.87
2023-07-05T06:52:48.140Z,25.78
2023-07-05T06:53:47.381Z,25.84
2023-07-05T06:54:29.164Z,25.78
2023-07-05T06:55:14.054Z,25.84
2023-07-05T06:55:56.203Z,25.87
2023-07-05T06:56:36.046Z,25.91
2023-07-05T06:57:16.145Z,25.74
2023-07-05T06:57:56.024Z,25.73
2023-07-05T06:58:43.081Z,25.85
2023-07-05T06:59:37.079Z,25.97
2023-07-05T07:00:32.053Z,25.93
2023-07-05T07:01:26.097Z,25.84
2023-07-05T07:02:20.087Z,26.01
2023-07-05T07:03:14.058Z,26.08
2023-07-05T07:04:01.055Z,26.06
2023-07-05T07:04:36.169Z,25.91
2023-07-05T07:05:24.047Z,26.01
2023-07-05T07:06:01.182Z,26.14
2023-07-05T07:06:48.033Z,26.07
2023-07-05T07:07:22.139Z,26.02
2023-07-05T07:08:09.039Z,26.10
2023-07-05T07:08:44.202Z,26.16
2023-07-05T07:09:24.241Z,26.12
2023-07-05T07:10:19.042Z,26.12
2023-07-05T07:11:17.173Z,26.26
2023-07-05T07:12:11.054Z,26.24
2023-07-05T07:13:05.090Z,26.36
2023-07-05T07:14:00.080Z,26.39
2023-07-05T07:14:47.086Z,26.46
2023-07-05T07:15:21.164Z,26.48
2023-07-05T07:16:26.209Z,26.58
2023-07-05T07:17:00.176Z,26.48
2023-07-05T07:17:47.150Z,26.52
2023-07-05T07:18:21.090Z,26.58
2023-07-05T07:19:08.038Z,26.61
2023-07-05T07:19:44.067Z,26.66
2023-07-05T07:20:27.296Z,26.57
2023-07-05T07:21:07.149Z,26.65
2023-07-05T07:21:47.056Z,26.69
2023-07-05T07:22:27.166Z,26.67
2023-07-05T07:23:07.022Z,26.60
2023-07-05T07:23:48.489Z,26.57
2023-07-05T07:24:30.153Z,26.65
2023-07-05T07:25:10.159Z,26.69
2023-07-05T07:25:50.050Z,26.65
2023-07-05T07:26:32.181Z,26.52
2023-07-05T07:27:14.040Z,26.71
2023-07-05T07:27:54.175Z,26.77
2023-07-05T07:28:35.021Z,26.70
2023-07-05T07:29:15.095Z,26.78
2023-07-05T07:29:56.012Z,26.74
2023-07-05T07:30:29.929Z,26.92
2023-07-05T07:31:27.092Z,26.98
2023-07-05T07:32:01.393Z,26.95
2023-07-05T07:32:35.913Z,26.94
2023-07-05T07:33:16.044Z,26.96
2023-07-05T07:33:52.130Z,26.99
2023-07-05T07:34:25.757Z,26.99
2023-07-05T07:35:06.047Z,27.08
2023-07-05T07:35:40.175Z,26.84
2023-07-05T07:36:21.224Z,27.02
2023-07-05T07:37:01.044Z,27.02
2023-07-05T07:37:35.154Z,27.05
2023-07-05T07:38:08.787Z,27.09
2023-07-05T07:38:51.036Z,27.13
2023-07-05T07:39:25.237Z,27.13
2023-07-05T07:40:00.072Z,27.15
2023-07-05T07:40:45.040Z,27.23
2023-07-05T07:41:27.176Z,27.18
2023-07-05T07:42:08.046Z,27.23
2023-07-05T07:42:48.122Z,27.19
2023-07-05T07:43:28.080Z,27.30
2023-07-05T07:44:12.335Z,27.36
2023-07-05T07:44:52.041Z,27.35
2023-07-05T07:45:32.108Z,27.35
2023-07-05T07:46:20.064Z,27.32
2023-07-05T07:47:01.332Z,27.24
2023-07-05T07:47:42.087Z,27.39
2023-07-05T07:48:22.130Z,27.46
2023-07-05T07:49:06.021Z,27.48
2023-07-05T07:49:47.127Z,27.44
2023-07-05T07:50:27.084Z,27.46
2023-07-05T07:51:07.137Z,27.46
2023-07-05T07:51:52.022Z,27.48
2023-07-05T07:52:32.114Z,27.49
2023-07-05T07:53:12.093Z,27.51
2023-07-05T07:53:52.260Z,27.64
2023-07-05T07:54:38.035Z,27.57
2023-07-05T07:55:19.129Z,27.63
2023-07-05T07:55:59.026Z,27.65
2023-07-05T07:56:40.097Z,27.67
2023-07-05T07:57:20.045Z,27.70
2023-07-05T07:58:00.309Z,27.64
2023-07-05T07:58:40.055Z,27.77
2023-07-05T07:59:02.261Z,27.71
2023-07-05T07:59:24.073Z,27.72
2023-07-05T07:59:44.132Z,27.75
2023-07-05T08:00:04.149Z,27.72
2023-07-05T08:00:25.265Z,27.74
2023-07-05T08:00:45.128Z,27.72
2023-07-05T08:01:05.150Z,27.72
2023-07-05T08:01:45.135Z,27.82
2023-07-05T08:02:07.942Z,27.87
2023-07-05T08:03:00.016Z,27.81
2023-07-05T08:03:21.120Z,27.77
2023-07-05T08:03:43.074Z,27.77
2023-07-05T08:04:06.312Z,27.82
2023-07-05T08:04:26.193Z,27.83
2023-07-05T08:04:56.361Z,27.77
2023-07-05T08:05:26.131Z,27.80
2023-07-05T08:05:46.141Z,27.85
2023-07-05T08:06:08.103Z,27.89
2023-07-05T08:06:37.431Z,27.89
2023-07-05T08:07:16.119Z,27.89
2023-07-05T08:07:55.503Z,27.89
2023-07-05T08:08:34.001Z,27.81
2023-07-05T08:09:16.045Z,28.01
2023-07-05T08:09:51.361Z,27.96
2023-07-05T08:10:23.804Z,28.16
2023-07-05T08:11:02.017Z,28.12
2023-07-05T08:11:36.153Z,28.07
2023-07-05T08:12:10.354Z,28.01
2023-07-05T08:12:50.036Z,28.02
2023-07-05T08:13:24.169Z,28.04
2023-07-05T08:13:57.967Z,28.07
2023-07-05T08:14:38.095Z,28.09
2023-07-05T08:15:13.141Z,28.13
2023-07-05T08:15:46.798Z,28.14
2023-07-05T08:16:29.122Z,28.18
2023-07-05T08:17:04.133Z,28.22
2023-07-05T08:17:37.907Z,28.16
2023-07-05T08:18:18.000Z,28.09
2023-07-05T08:18:53.110Z,28.26
2023-07-05T08:19:27.865Z,28.21
2023-07-05T08:20:09.014Z,28.24
2023-07-05T08:20:43.081Z,28.09
2023-07-05T08:21:20.732Z,28.32
2023-07-05T08:22:02.009Z,28.30
2023-07-05T08:22:36.179Z,28.35
2023-07-05T08:23:09.778Z,28.40
2023-07-05T08:23:52.069Z,28.43
2023-07-05T08:24:27.547Z,28.41
2023-07-05T08:25:01.865Z,28.39
2023-07-05T08:25:46.069Z,28.34
2023-07-05T08:26:21.411Z,28.21
2023-07-05T08:26:57.591Z,28.28
2023-07-05T08:27:39.065Z,28.31
2023-07-05T08:28:14.389Z,28.26
2023-07-05T08:28:49.032Z,28.33
2023-07-05T08:29:30.096Z,28.46
2023-07-05T08:30:08.177Z,28.38
2023-07-05T08:30:42.079Z,28.53
2023-07-05T08:31:23.144Z,28.50
2023-07-05T08:31:58.509Z,28.57
2023-07-05T08:32:34.296Z,28.67
2023-07-05T08:33:15.090Z,28.48
2023-07-05T08:33:49.107Z,28.73
2023-07-05T08:34:24.100Z,28.70
2023-07-05T08:35:04.963Z,28.66
2023-07-05T08:35:39.060Z,28.69
2023-07-05T08:36:21.823Z,28.80
2023-07-05T08:37:03.185Z,28.71
2023-07-05T08:37:37.682Z,28.79
2023-07-05T08:38:11.920Z,28.75
2023-07-05T08:39:02.145Z,28.82
2023-07-05T08:39:37.164Z,28.91
2023-07-05T08:40:12.739Z,28.73
2023-07-05T08:40:58.192Z,28.68
2023-07-05T08:41:49.194Z,28.99
2023-07-05T08:43:07.146Z,28.80
2023-07-05T08:43:54.249Z,28.77
2023-07-05T08:45:17.027Z,28.83
2023-07-05T08:46:05.390Z,28.84
2023-07-05T08:46:47.192Z,28.92
2023-07-05T08:47:39.257Z,28.92
2023-07-05T08:48:22.109Z,28.99
2023-07-05T08:49:18.319Z,29.06
2023-07-05T08:51:50.115Z,29.20
2023-07-05T08:52:39.228Z,29.22
2023-07-05T08:53:28.034Z,29.30
2023-07-05T08:54:13.291Z,29.21
2023-07-05T08:55:01.086Z,29.06
2023-07-05T08:56:04.652Z,29.26
2023-07-05T08:56:52.088Z,29.07
2023-07-05T08:58:00.256Z,29.27
2023-07-05T08:58:56.068Z,29.42
2023-07-05T09:00:01.191Z,29.54
2023-07-05T09:00:55.654Z,29.40
2023-07-05T09:01:27.298Z,29.34
2023-07-05T09:01:51.477Z,29.47
2023-07-05T09:02:17.100Z,29.54
2023-07-05T09:02:37.194Z,29.42
2023-07-05T09:02:59.216Z,29.53
2023-07-05T09:03:20.107Z,29.68
2023-07-05T09:03:42.409Z,29.75
2023-07-05T09:04:04.095Z,29.68
2023-07-05T09:04:36.166Z,29.67
2023-07-05T09:04:57.082Z,29.76
2023-07-05T09:05:34.303Z,29.80
2023-07-05T09:06:05.005Z,29.62
2023-07-05T09:07:03.217Z,29.93
2023-07-05T09:08:11.085Z,29.96
2023-07-05T09:09:44.031Z,30.03
2023-07-05T09:10:22.722Z,29.90
2023-07-05T09:11:13.394Z,29.79
2023-07-05T09:12:08.799Z,30.06
2023-07-05T09:13:17.171Z,29.98
2023-07-05T09:13:43.673Z,29.99
2023-07-05T09:15:00.055Z,30.14
2023-07-05T09:15:39.426Z,29.95